UAL1010 KPHX-MMSD
Flight info
| Callsign | UAL1010 |
|---|---|
| Flight time | 1h 41m |
| Altitude | 35000 |
| Route | STRRM1 TUS J92 DASVU DCT ENEKO ENEKO1B |
| Aircraft | A321/M-SDE3FGHIRWY/LB1 |
Departure
| Time | 2026-04-19 04:10 |
|---|---|
| Airport | Phoenix Sky Harbor International Airport (KPHX) |
Arrival
| Time | 2026-04-19 05:51 |
|---|---|
| Airport | Los Cabos International Airport (MMSD) |
| Time | Latitude | Longitude | Altitude | Speed | Heading |
|---|---|---|---|---|---|
| 2026-04-19 04:00 | 33.43385 | -112.00974 | 1124 ft | 0 kts | 1° |
| 2026-04-19 04:02 | 33.43379 | -112.00974 | 1124 ft | 4 kts | 1° |
| 2026-04-19 04:02 | 33.43352 | -112.00975 | 1124 ft | 4 kts | 1° |
| 2026-04-19 04:03 | 33.43325 | -112.00975 | 1124 ft | 4 kts | 357° |
| 2026-04-19 04:03 | 33.43299 | -112.00974 | 1124 ft | 4 kts | 16° |
| 2026-04-19 04:03 | 33.43288 | -112.00982 | 1124 ft | 2 kts | 90° |
| 2026-04-19 04:03 | 33.43288 | -112.01009 | 1124 ft | 2 kts | 90° |
| 2026-04-19 04:04 | 33.43288 | -112.01011 | 1124 ft | 0 kts | 90° |
| 2026-04-19 04:06 | 33.43287 | -112.00940 | 1120 ft | 19 kts | 91° |
| 2026-04-19 04:06 | 33.43286 | -112.00783 | 1118 ft | 17 kts | 90° |
| 2026-04-19 04:06 | 33.43286 | -112.00644 | 1118 ft | 16 kts | 89° |
| 2026-04-19 04:07 | 33.43276 | -112.00517 | 1122 ft | 15 kts | 113° |
| 2026-04-19 04:07 | 33.43222 | -112.00423 | 1125 ft | 13 kts | 112° |
| 2026-04-19 04:07 | 33.43221 | -112.00325 | 1125 ft | 11 kts | 93° |
| 2026-04-19 04:07 | 33.43213 | -112.00237 | 1118 ft | 13 kts | 90° |
| 2026-04-19 04:08 | 33.43214 | -112.00021 | 1117 ft | 35 kts | 90° |
| 2026-04-19 04:08 | 33.43214 | -111.99754 | 1117 ft | 30 kts | 91° |
| 2026-04-19 04:08 | 33.43212 | -111.99513 | 1121 ft | 28 kts | 90° |
| 2026-04-19 04:08 | 33.43195 | -111.99362 | 1115 ft | 13 kts | 135° |
| 2026-04-19 04:09 | 33.43125 | -111.99363 | 1114 ft | 10 kts | 223° |
| 2026-04-19 04:09 | 33.43104 | -111.99519 | 1123 ft | 42 kts | 270° |
| 2026-04-19 04:09 | 33.43098 | -112.00135 | 1125 ft | 103 kts | 269° |
| 2026-04-19 04:09 | 33.43097 | -112.01200 | 1125 ft | 150 kts | 270° |
| 2026-04-19 04:10 | 33.43114 | -112.02581 | 1289 ft | 174 kts | 271° |
| 2026-04-19 04:10 | 33.43144 | -112.04022 | 1903 ft | 173 kts | 270° |
| 2026-04-19 04:10 | 33.43128 | -112.05460 | 2368 ft | 177 kts | 270° |
| 2026-04-19 04:10 | 33.43011 | -112.06943 | 2832 ft | 182 kts | 263° |
| 2026-04-19 04:11 | 33.42652 | -112.08437 | 3083 ft | 196 kts | 248° |
| 2026-04-19 04:11 | 33.42103 | -112.10004 | 3207 ft | 214 kts | 250° |
| 2026-04-19 04:11 | 33.41533 | -112.11753 | 3338 ft | 237 kts | 251° |
| 2026-04-19 04:11 | 33.40922 | -112.13689 | 3536 ft | 260 kts | 250° |
| 2026-04-19 04:12 | 33.40277 | -112.15749 | 4058 ft | 268 kts | 249° |
| 2026-04-19 04:12 | 33.39274 | -112.17634 | 4682 ft | 275 kts | 221° |
| 2026-04-19 04:12 | 33.37575 | -112.18579 | 5325 ft | 278 kts | 186° |
| 2026-04-19 04:12 | 33.35666 | -112.18436 | 6108 ft | 276 kts | 167° |
| 2026-04-19 04:13 | 33.33824 | -112.17803 | 6852 ft | 275 kts | 160° |
| 2026-04-19 04:13 | 33.32029 | -112.17013 | 7579 ft | 275 kts | 159° |
| 2026-04-19 04:13 | 33.30244 | -112.16207 | 8319 ft | 275 kts | 159° |
| 2026-04-19 04:13 | 33.28496 | -112.15266 | 9045 ft | 276 kts | 148° |
| 2026-04-19 04:14 | 33.26859 | -112.14078 | 9794 ft | 276 kts | 149° |
| 2026-04-19 04:14 | 33.25174 | -112.12934 | 10292 ft | 285 kts | 150° |
| 2026-04-19 04:14 | 33.23390 | -112.11768 | 10421 ft | 307 kts | 152° |
| 2026-04-19 04:14 | 33.21442 | -112.10517 | 10542 ft | 328 kts | 152° |
| 2026-04-19 04:15 | 33.19394 | -112.09210 | 10924 ft | 339 kts | 152° |
| 2026-04-19 04:15 | 33.17297 | -112.07873 | 11495 ft | 343 kts | 152° |
| 2026-04-19 04:15 | 33.15185 | -112.06525 | 12098 ft | 347 kts | 152° |
| 2026-04-19 04:15 | 33.13047 | -112.05157 | 12698 ft | 351 kts | 152° |
| 2026-04-19 04:16 | 33.10887 | -112.03770 | 13312 ft | 354 kts | 152° |
| 2026-04-19 04:16 | 33.08704 | -112.02365 | 13892 ft | 358 kts | 152° |
| 2026-04-19 04:16 | 33.06498 | -112.00944 | 14417 ft | 362 kts | 152° |
| 2026-04-19 04:16 | 33.04265 | -111.99510 | 14950 ft | 367 kts | 152° |
| 2026-04-19 04:17 | 33.02037 | -111.98079 | 15459 ft | 371 kts | 152° |
| 2026-04-19 04:17 | 32.99752 | -111.96617 | 15971 ft | 375 kts | 153° |
| 2026-04-19 04:17 | 32.97398 | -111.95247 | 16478 ft | 378 kts | 155° |
| 2026-04-19 04:17 | 32.94978 | -111.93974 | 16983 ft | 382 kts | 157° |
| 2026-04-19 04:18 | 32.92517 | -111.92752 | 17486 ft | 386 kts | 158° |
| 2026-04-19 04:18 | 32.90053 | -111.91451 | 17958 ft | 390 kts | 152° |
| 2026-04-19 04:18 | 32.87782 | -111.89664 | 18401 ft | 395 kts | 141° |
| 2026-04-19 04:18 | 32.85813 | -111.87363 | 18807 ft | 399 kts | 134° |
| 2026-04-19 04:19 | 32.83946 | -111.84964 | 19209 ft | 402 kts | 134° |
| 2026-04-19 04:19 | 32.82037 | -111.82514 | 19609 ft | 405 kts | 134° |
| 2026-04-19 04:19 | 32.80108 | -111.80049 | 20005 ft | 409 kts | 134° |
| 2026-04-19 04:19 | 32.78158 | -111.77570 | 20397 ft | 412 kts | 134° |
| 2026-04-19 04:20 | 32.76189 | -111.75077 | 20793 ft | 415 kts | 134° |
| 2026-04-19 04:20 | 32.74208 | -111.72572 | 21184 ft | 419 kts | 134° |
| 2026-04-19 04:20 | 32.72201 | -111.70037 | 21561 ft | 422 kts | 134° |
| 2026-04-19 04:20 | 32.70190 | -111.67493 | 21949 ft | 425 kts | 134° |
| 2026-04-19 04:21 | 32.68157 | -111.64921 | 22326 ft | 428 kts | 134° |
| 2026-04-19 04:21 | 32.66112 | -111.62335 | 22704 ft | 431 kts | 134° |
| 2026-04-19 04:21 | 32.64085 | -111.59771 | 23081 ft | 434 kts | 134° |
| 2026-04-19 04:21 | 32.62006 | -111.57146 | 23456 ft | 437 kts | 134° |
| 2026-04-19 04:22 | 32.59922 | -111.54515 | 23834 ft | 440 kts | 134° |
| 2026-04-19 04:22 | 32.57818 | -111.51864 | 24156 ft | 443 kts | 134° |
| 2026-04-19 04:22 | 32.55698 | -111.49197 | 24466 ft | 446 kts | 134° |
| 2026-04-19 04:22 | 32.53564 | -111.46511 | 24778 ft | 449 kts | 134° |
| 2026-04-19 04:23 | 32.51417 | -111.43808 | 25085 ft | 452 kts | 134° |
| 2026-04-19 04:23 | 32.49288 | -111.41123 | 25385 ft | 454 kts | 134° |
| 2026-04-19 04:23 | 32.47118 | -111.38388 | 25680 ft | 457 kts | 134° |
| 2026-04-19 04:23 | 32.44931 | -111.35642 | 25984 ft | 459 kts | 134° |
| 2026-04-19 04:24 | 32.42729 | -111.32885 | 26271 ft | 462 kts | 134° |
| 2026-04-19 04:24 | 32.40518 | -111.30121 | 26542 ft | 465 kts | 134° |
| 2026-04-19 04:24 | 32.38290 | -111.27336 | 26828 ft | 467 kts | 134° |
| 2026-04-19 04:24 | 32.36051 | -111.24536 | 27095 ft | 470 kts | 135° |
| 2026-04-19 04:25 | 32.33798 | -111.21719 | 27303 ft | 473 kts | 135° |
| 2026-04-19 04:25 | 32.31532 | -111.18887 | 27578 ft | 475 kts | 135° |
| 2026-04-19 04:25 | 32.29284 | -111.16080 | 27845 ft | 478 kts | 135° |
| 2026-04-19 04:25 | 32.26993 | -111.13223 | 28122 ft | 480 kts | 135° |
| 2026-04-19 04:26 | 32.24688 | -111.10351 | 28348 ft | 483 kts | 135° |
| 2026-04-19 04:26 | 32.22373 | -111.07463 | 28592 ft | 485 kts | 135° |
| 2026-04-19 04:26 | 32.20053 | -111.04568 | 28896 ft | 487 kts | 135° |
| 2026-04-19 04:26 | 32.17713 | -111.01656 | 29163 ft | 490 kts | 135° |
| 2026-04-19 04:27 | 32.15350 | -110.98747 | 29399 ft | 491 kts | 138° |
| 2026-04-19 04:27 | 32.12725 | -110.96174 | 29656 ft | 489 kts | 148° |
| 2026-04-19 04:27 | 32.09836 | -110.94197 | 29992 ft | 485 kts | 159° |
| 2026-04-19 04:27 | 32.06698 | -110.92811 | 30279 ft | 479 kts | 169° |
| 2026-04-19 04:28 | 32.03450 | -110.92056 | 30584 ft | 473 kts | 178° |
| 2026-04-19 04:28 | 32.00197 | -110.91908 | 30899 ft | 466 kts | 187° |
| 2026-04-19 04:28 | 31.96965 | -110.92053 | 31231 ft | 464 kts | 187° |
| 2026-04-19 04:28 | 31.93745 | -110.92204 | 31579 ft | 462 kts | 187° |
| 2026-04-19 04:29 | 31.90539 | -110.92355 | 31934 ft | 460 kts | 188° |
| 2026-04-19 04:29 | 31.87352 | -110.92504 | 32327 ft | 457 kts | 188° |
| 2026-04-19 04:29 | 31.84228 | -110.92649 | 32714 ft | 454 kts | 188° |
| 2026-04-19 04:29 | 31.81081 | -110.92797 | 33093 ft | 451 kts | 188° |
| 2026-04-19 04:30 | 31.77949 | -110.92944 | 33463 ft | 449 kts | 188° |
| 2026-04-19 04:30 | 31.74833 | -110.93089 | 33840 ft | 447 kts | 189° |
| 2026-04-19 04:30 | 31.71732 | -110.93233 | 34153 ft | 445 kts | 189° |
| 2026-04-19 04:30 | 31.68645 | -110.93373 | 34429 ft | 445 kts | 189° |
| 2026-04-19 04:31 | 31.65590 | -110.93510 | 34691 ft | 444 kts | 189° |
| 2026-04-19 04:31 | 31.62498 | -110.93652 | 34937 ft | 445 kts | 189° |
| 2026-04-19 04:31 | 31.56351 | -110.93942 | 35010 ft | 441 kts | 189° |
| 2026-04-19 04:32 | 31.50222 | -110.94227 | 35039 ft | 440 kts | 189° |
| 2026-04-19 04:32 | 31.44099 | -110.94504 | 35054 ft | 440 kts | 189° |
| 2026-04-19 04:33 | 31.37975 | -110.94778 | 35033 ft | 440 kts | 188° |
| 2026-04-19 04:33 | 31.31914 | -110.95049 | 35034 ft | 439 kts | 188° |
| 2026-04-19 04:34 | 31.25806 | -110.95329 | 35010 ft | 439 kts | 189° |
| 2026-04-19 04:34 | 31.19699 | -110.95619 | 34982 ft | 439 kts | 189° |
| 2026-04-19 04:35 | 31.13592 | -110.95897 | 34950 ft | 439 kts | 188° |
| 2026-04-19 04:35 | 31.07528 | -110.96168 | 34904 ft | 439 kts | 188° |
| 2026-04-19 04:36 | 31.01431 | -110.96448 | 34912 ft | 438 kts | 188° |
| 2026-04-19 04:36 | 30.95342 | -110.96724 | 34914 ft | 438 kts | 188° |
| 2026-04-19 04:37 | 30.89248 | -110.97008 | 34909 ft | 438 kts | 188° |
| 2026-04-19 04:37 | 30.83156 | -110.97294 | 34890 ft | 438 kts | 188° |
| 2026-04-19 04:38 | 30.77111 | -110.97570 | 34911 ft | 437 kts | 188° |
| 2026-04-19 04:38 | 30.71041 | -110.97859 | 34917 ft | 437 kts | 188° |
| 2026-04-19 04:39 | 30.64971 | -110.98156 | 34919 ft | 437 kts | 188° |
| 2026-04-19 04:39 | 30.58900 | -110.98454 | 34907 ft | 436 kts | 188° |
| 2026-04-19 04:40 | 30.52878 | -110.98753 | 34912 ft | 436 kts | 188° |
| 2026-04-19 04:40 | 30.46817 | -110.99047 | 34915 ft | 436 kts | 187° |
| 2026-04-19 04:41 | 30.40763 | -110.99323 | 34916 ft | 436 kts | 187° |
| 2026-04-19 04:41 | 30.34704 | -110.99592 | 34916 ft | 436 kts | 187° |
| 2026-04-19 04:42 | 30.28689 | -110.99857 | 34909 ft | 435 kts | 187° |
| 2026-04-19 04:42 | 30.22643 | -111.00128 | 34916 ft | 434 kts | 187° |
| 2026-04-19 04:43 | 30.16606 | -111.00405 | 34914 ft | 434 kts | 187° |
| 2026-04-19 04:43 | 30.10575 | -111.00675 | 34911 ft | 433 kts | 187° |
| 2026-04-19 04:44 | 30.04591 | -111.00940 | 34905 ft | 433 kts | 187° |
| 2026-04-19 04:44 | 29.98583 | -111.01207 | 34907 ft | 431 kts | 188° |
| 2026-04-19 04:45 | 29.92601 | -111.01480 | 34908 ft | 430 kts | 188° |
| 2026-04-19 04:45 | 29.86625 | -111.01752 | 34898 ft | 429 kts | 188° |
| 2026-04-19 04:46 | 29.80657 | -111.02022 | 34896 ft | 429 kts | 188° |
| 2026-04-19 04:46 | 29.74738 | -111.02287 | 34883 ft | 428 kts | 188° |
| 2026-04-19 04:47 | 29.68793 | -111.02551 | 34889 ft | 427 kts | 188° |
| 2026-04-19 04:47 | 29.62866 | -111.02819 | 34883 ft | 426 kts | 188° |
| 2026-04-19 04:48 | 29.56942 | -111.03086 | 34883 ft | 426 kts | 188° |
| 2026-04-19 04:48 | 29.51061 | -111.03351 | 34862 ft | 426 kts | 187° |
| 2026-04-19 04:49 | 29.45143 | -111.03614 | 34866 ft | 425 kts | 187° |
| 2026-04-19 04:49 | 29.39227 | -111.03882 | 34886 ft | 425 kts | 187° |
| 2026-04-19 04:50 | 29.33318 | -111.04150 | 34901 ft | 425 kts | 187° |
| 2026-04-19 04:50 | 29.27402 | -111.04414 | 34919 ft | 425 kts | 187° |
| 2026-04-19 04:51 | 29.21528 | -111.04672 | 34921 ft | 425 kts | 188° |
| 2026-04-19 04:51 | 29.15617 | -111.04936 | 34936 ft | 425 kts | 188° |
| 2026-04-19 04:52 | 29.09704 | -111.05170 | 34939 ft | 427 kts | 184° |
| 2026-04-19 04:52 | 29.03739 | -111.04572 | 34941 ft | 431 kts | 180° |
| 2026-04-19 04:53 | 28.97817 | -111.03911 | 34934 ft | 431 kts | 181° |
| 2026-04-19 04:53 | 28.91849 | -111.03248 | 34917 ft | 431 kts | 181° |
| 2026-04-19 04:54 | 28.85881 | -111.02594 | 34902 ft | 431 kts | 181° |
| 2026-04-19 04:54 | 28.79914 | -111.01938 | 34877 ft | 431 kts | 181° |
| 2026-04-19 04:55 | 28.73954 | -111.01275 | 34872 ft | 431 kts | 181° |
| 2026-04-19 04:55 | 28.68027 | -111.00617 | 34872 ft | 430 kts | 181° |
| 2026-04-19 04:56 | 28.62068 | -110.99957 | 34877 ft | 430 kts | 181° |
| 2026-04-19 04:56 | 28.56125 | -110.99303 | 34888 ft | 429 kts | 181° |
| 2026-04-19 04:57 | 28.50181 | -110.98649 | 34889 ft | 429 kts | 181° |
| 2026-04-19 04:57 | 28.44283 | -110.98000 | 34891 ft | 428 kts | 181° |
| 2026-04-19 04:58 | 28.38363 | -110.97348 | 34877 ft | 427 kts | 181° |
| 2026-04-19 04:58 | 28.32451 | -110.96699 | 34886 ft | 426 kts | 181° |
| 2026-04-19 04:59 | 28.26554 | -110.96049 | 34889 ft | 426 kts | 181° |
| 2026-04-19 04:59 | 28.20648 | -110.95399 | 34890 ft | 426 kts | 181° |
| 2026-04-19 05:00 | 28.14799 | -110.94766 | 34876 ft | 425 kts | 181° |
| 2026-04-19 05:00 | 28.08909 | -110.94129 | 34879 ft | 425 kts | 181° |
| 2026-04-19 05:01 | 28.03019 | -110.93490 | 34883 ft | 425 kts | 181° |
| 2026-04-19 05:01 | 27.97168 | -110.92856 | 34885 ft | 425 kts | 181° |
| 2026-04-19 05:02 | 27.91276 | -110.92093 | 34890 ft | 427 kts | 179° |
| 2026-04-19 05:02 | 27.85394 | -110.91149 | 34879 ft | 427 kts | 179° |
| 2026-04-19 05:03 | 27.79514 | -110.90205 | 34895 ft | 426 kts | 179° |
| 2026-04-19 05:03 | 27.73640 | -110.89309 | 34899 ft | 426 kts | 179° |
| 2026-04-19 05:04 | 27.67809 | -110.88432 | 34908 ft | 425 kts | 179° |
| 2026-04-19 05:04 | 27.61941 | -110.87553 | 34895 ft | 425 kts | 180° |
| 2026-04-19 05:05 | 27.56079 | -110.86671 | 34909 ft | 425 kts | 179° |
| 2026-04-19 05:05 | 27.50233 | -110.85789 | 34923 ft | 424 kts | 179° |
| 2026-04-19 05:06 | 27.44384 | -110.84914 | 34924 ft | 424 kts | 180° |
| 2026-04-19 05:06 | 27.38577 | -110.84048 | 34933 ft | 424 kts | 179° |
| 2026-04-19 05:07 | 27.32733 | -110.83169 | 34908 ft | 423 kts | 180° |
| 2026-04-19 05:07 | 27.27882 | -110.82444 | 34919 ft | 423 kts | 180° |
| 2026-04-19 05:08 | 27.18173 | -110.80978 | 34927 ft | 424 kts | 179° |
| 2026-04-19 05:09 | 27.12329 | -110.80102 | 34932 ft | 423 kts | 179° |
| 2026-04-19 05:09 | 27.07473 | -110.79377 | 34937 ft | 423 kts | 179° |
| 2026-04-19 05:10 | 27.01642 | -110.78514 | 34931 ft | 423 kts | 180° |
| 2026-04-19 05:10 | 26.95804 | -110.77650 | 34941 ft | 423 kts | 180° |
| 2026-04-19 05:11 | 26.89012 | -110.76637 | 34960 ft | 423 kts | 180° |
| 2026-04-19 05:11 | 26.84160 | -110.75916 | 34957 ft | 423 kts | 180° |
| 2026-04-19 05:12 | 26.78317 | -110.75052 | 34937 ft | 423 kts | 180° |
| 2026-04-19 05:12 | 26.72480 | -110.74181 | 34952 ft | 423 kts | 180° |
| 2026-04-19 05:13 | 26.66660 | -110.73313 | 34959 ft | 422 kts | 180° |
| 2026-04-19 05:13 | 26.60841 | -110.72449 | 34964 ft | 421 kts | 180° |
| 2026-04-19 05:14 | 26.55028 | -110.71598 | 34958 ft | 421 kts | 180° |
| 2026-04-19 05:14 | 26.49258 | -110.70750 | 34942 ft | 421 kts | 180° |
| 2026-04-19 05:15 | 26.43457 | -110.69886 | 34948 ft | 421 kts | 180° |
| 2026-04-19 05:15 | 26.37655 | -110.69021 | 34950 ft | 420 kts | 180° |
| 2026-04-19 05:16 | 26.31857 | -110.68166 | 34951 ft | 420 kts | 180° |
| 2026-04-19 05:16 | 26.26060 | -110.67317 | 34951 ft | 420 kts | 180° |
| 2026-04-19 05:17 | 26.20305 | -110.66475 | 34952 ft | 420 kts | 180° |
| 2026-04-19 05:17 | 26.14519 | -110.65624 | 34951 ft | 420 kts | 180° |
| 2026-04-19 05:18 | 26.08726 | -110.64767 | 34949 ft | 420 kts | 180° |
| 2026-04-19 05:18 | 26.02935 | -110.63917 | 34949 ft | 419 kts | 180° |
| 2026-04-19 05:19 | 25.97186 | -110.63080 | 34947 ft | 419 kts | 180° |
| 2026-04-19 05:19 | 25.91407 | -110.62240 | 34932 ft | 419 kts | 180° |
| 2026-04-19 05:20 | 25.85624 | -110.61397 | 34937 ft | 419 kts | 180° |
| 2026-04-19 05:20 | 25.79876 | -110.60553 | 34946 ft | 420 kts | 180° |
| 2026-04-19 05:21 | 25.74086 | -110.59701 | 34952 ft | 420 kts | 180° |
| 2026-04-19 05:21 | 25.68304 | -110.58853 | 34953 ft | 419 kts | 180° |
| 2026-04-19 05:22 | 25.62515 | -110.58015 | 34934 ft | 419 kts | 180° |
| 2026-04-19 05:22 | 25.56728 | -110.57174 | 34943 ft | 419 kts | 180° |
| 2026-04-19 05:23 | 25.50978 | -110.56339 | 34949 ft | 419 kts | 180° |
| 2026-04-19 05:23 | 25.45202 | -110.55497 | 34956 ft | 419 kts | 180° |
| 2026-04-19 05:24 | 25.39418 | -110.54659 | 34944 ft | 419 kts | 180° |
| 2026-04-19 05:24 | 25.33634 | -110.53818 | 34936 ft | 419 kts | 180° |
| 2026-04-19 05:25 | 25.27999 | -110.51976 | 34938 ft | 440 kts | 160° |
| 2026-04-19 05:25 | 25.25418 | -110.50080 | 34932 ft | 453 kts | 148° |
| 2026-04-19 05:25 | 25.23143 | -110.47616 | 34936 ft | 461 kts | 141° |
| 2026-04-19 05:26 | 25.18729 | -110.42479 | 34941 ft | 462 kts | 142° |
| 2026-04-19 05:26 | 25.14287 | -110.37345 | 34943 ft | 462 kts | 142° |
| 2026-04-19 05:27 | 25.09859 | -110.32259 | 34929 ft | 462 kts | 142° |
| 2026-04-19 05:27 | 25.05410 | -110.27146 | 34944 ft | 462 kts | 142° |
| 2026-04-19 05:28 | 25.00961 | -110.22029 | 34946 ft | 462 kts | 142° |
| 2026-04-19 05:28 | 24.96512 | -110.16920 | 34949 ft | 462 kts | 142° |
| 2026-04-19 05:29 | 24.92066 | -110.11818 | 34950 ft | 462 kts | 142° |
| 2026-04-19 05:29 | 24.87641 | -110.06748 | 34946 ft | 462 kts | 142° |
| 2026-04-19 05:30 | 24.83192 | -110.01652 | 34938 ft | 462 kts | 142° |
| 2026-04-19 05:30 | 24.78736 | -109.96559 | 34943 ft | 462 kts | 142° |
| 2026-04-19 05:31 | 24.74277 | -109.91464 | 34658 ft | 462 kts | 142° |
| 2026-04-19 05:31 | 24.72038 | -109.88912 | 33833 ft | 468 kts | 142° |
| 2026-04-19 05:31 | 24.69785 | -109.86354 | 32814 ft | 475 kts | 142° |
| 2026-04-19 05:31 | 24.67478 | -109.83732 | 31883 ft | 480 kts | 141° |
| 2026-04-19 05:32 | 24.65147 | -109.81082 | 30947 ft | 484 kts | 141° |
| 2026-04-19 05:32 | 24.62817 | -109.78425 | 30387 ft | 480 kts | 140° |
| 2026-04-19 05:32 | 24.60507 | -109.75783 | 29685 ft | 479 kts | 140° |
| 2026-04-19 05:32 | 24.58208 | -109.73154 | 29075 ft | 475 kts | 140° |
| 2026-04-19 05:33 | 24.55931 | -109.70551 | 28449 ft | 470 kts | 140° |
| 2026-04-19 05:33 | 24.53676 | -109.67980 | 27835 ft | 466 kts | 140° |
| 2026-04-19 05:33 | 24.51432 | -109.65432 | 27237 ft | 462 kts | 140° |
| 2026-04-19 05:33 | 24.49235 | -109.62944 | 26653 ft | 458 kts | 140° |
| 2026-04-19 05:34 | 24.47026 | -109.60444 | 26058 ft | 454 kts | 140° |
| 2026-04-19 05:34 | 24.44834 | -109.57966 | 25469 ft | 450 kts | 140° |
| 2026-04-19 05:34 | 24.42659 | -109.55510 | 24903 ft | 447 kts | 140° |
| 2026-04-19 05:34 | 24.40508 | -109.53079 | 24347 ft | 443 kts | 139° |
| 2026-04-19 05:35 | 24.38372 | -109.50653 | 23801 ft | 439 kts | 139° |
| 2026-04-19 05:35 | 24.36262 | -109.48262 | 23235 ft | 435 kts | 139° |
| 2026-04-19 05:35 | 24.34052 | -109.46054 | 22587 ft | 424 kts | 150° |
| 2026-04-19 05:35 | 24.31538 | -109.44572 | 21981 ft | 410 kts | 165° |
| 2026-04-19 05:36 | 24.28811 | -109.43870 | 21387 ft | 398 kts | 179° |
| 2026-04-19 05:36 | 24.26088 | -109.43955 | 20799 ft | 388 kts | 192° |
| 2026-04-19 05:36 | 24.23476 | -109.44590 | 20226 ft | 383 kts | 196° |
| 2026-04-19 05:36 | 24.20897 | -109.45252 | 19655 ft | 380 kts | 195° |
| 2026-04-19 05:37 | 24.18332 | -109.45910 | 19107 ft | 377 kts | 195° |
| 2026-04-19 05:37 | 24.15778 | -109.46562 | 18566 ft | 375 kts | 195° |
| 2026-04-19 05:37 | 24.13248 | -109.47206 | 17997 ft | 373 kts | 195° |
| 2026-04-19 05:37 | 24.10725 | -109.47848 | 17378 ft | 371 kts | 195° |
| 2026-04-19 05:38 | 24.08263 | -109.48474 | 17046 ft | 363 kts | 195° |
| 2026-04-19 05:38 | 24.05837 | -109.49091 | 16792 ft | 354 kts | 195° |
| 2026-04-19 05:38 | 24.03456 | -109.49696 | 16535 ft | 349 kts | 195° |
| 2026-04-19 05:38 | 24.01095 | -109.50296 | 16292 ft | 347 kts | 195° |
| 2026-04-19 05:39 | 23.98753 | -109.50893 | 16046 ft | 346 kts | 195° |
| 2026-04-19 05:39 | 23.96411 | -109.51488 | 15807 ft | 344 kts | 195° |
| 2026-04-19 05:39 | 23.94102 | -109.52074 | 15546 ft | 338 kts | 195° |
| 2026-04-19 05:39 | 23.91830 | -109.52649 | 15160 ft | 333 kts | 195° |
| 2026-04-19 05:40 | 23.89642 | -109.53323 | 14711 ft | 332 kts | 200° |
| 2026-04-19 05:40 | 23.87439 | -109.54135 | 14090 ft | 336 kts | 200° |
| 2026-04-19 05:40 | 23.85215 | -109.54961 | 13452 ft | 339 kts | 199° |
| 2026-04-19 05:40 | 23.82975 | -109.55791 | 12830 ft | 340 kts | 199° |
| 2026-04-19 05:41 | 23.80732 | -109.56621 | 12222 ft | 341 kts | 199° |
| 2026-04-19 05:41 | 23.78481 | -109.57452 | 11615 ft | 342 kts | 199° |
| 2026-04-19 05:41 | 23.76223 | -109.58287 | 11006 ft | 343 kts | 199° |
| 2026-04-19 05:41 | 23.73957 | -109.59125 | 10421 ft | 344 kts | 199° |
| 2026-04-19 05:42 | 23.71758 | -109.59935 | 10248 ft | 331 kts | 199° |
| 2026-04-19 05:42 | 23.69618 | -109.60722 | 10139 ft | 318 kts | 199° |
| 2026-04-19 05:42 | 23.67564 | -109.61476 | 10019 ft | 304 kts | 199° |
| 2026-04-19 05:42 | 23.65626 | -109.62187 | 9677 ft | 286 kts | 199° |
| 2026-04-19 05:43 | 23.63767 | -109.62871 | 9360 ft | 280 kts | 200° |
| 2026-04-19 05:43 | 23.61916 | -109.63556 | 9192 ft | 281 kts | 199° |
| 2026-04-19 05:43 | 23.60066 | -109.64241 | 8864 ft | 280 kts | 199° |
| 2026-04-19 05:43 | 23.58230 | -109.64919 | 8508 ft | 277 kts | 199° |
| 2026-04-19 05:44 | 23.56434 | -109.65581 | 8154 ft | 275 kts | 199° |
| 2026-04-19 05:44 | 23.54628 | -109.66245 | 7792 ft | 273 kts | 199° |
| 2026-04-19 05:44 | 23.52835 | -109.66904 | 7462 ft | 271 kts | 199° |
| 2026-04-19 05:44 | 23.51055 | -109.67560 | 7111 ft | 269 kts | 199° |
| 2026-04-19 05:45 | 23.49286 | -109.68212 | 6763 ft | 267 kts | 199° |
| 2026-04-19 05:45 | 23.47532 | -109.68858 | 6422 ft | 266 kts | 199° |
| 2026-04-19 05:45 | 23.45786 | -109.69499 | 6063 ft | 264 kts | 199° |
| 2026-04-19 05:45 | 23.44052 | -109.70136 | 5718 ft | 262 kts | 198° |
| 2026-04-19 05:46 | 23.42332 | -109.70769 | 5377 ft | 260 kts | 198° |
| 2026-04-19 05:46 | 23.40647 | -109.71387 | 5045 ft | 258 kts | 198° |
| 2026-04-19 05:46 | 23.38948 | -109.72007 | 4709 ft | 257 kts | 197° |
| 2026-04-19 05:46 | 23.37257 | -109.72625 | 4364 ft | 255 kts | 198° |
| 2026-04-19 05:47 | 23.35577 | -109.73240 | 4030 ft | 254 kts | 198° |
| 2026-04-19 05:47 | 23.33907 | -109.73847 | 3700 ft | 252 kts | 195° |
| 2026-04-19 05:47 | 23.32190 | -109.74014 | 3382 ft | 249 kts | 174° |
| 2026-04-19 05:47 | 23.30468 | -109.73819 | 3053 ft | 248 kts | 174° |
| 2026-04-19 05:48 | 23.28759 | -109.73623 | 2726 ft | 247 kts | 174° |
| 2026-04-19 05:48 | 23.27055 | -109.73427 | 2403 ft | 246 kts | 175° |
| 2026-04-19 05:48 | 23.25399 | -109.73237 | 2120 ft | 229 kts | 175° |
| 2026-04-19 05:48 | 23.23932 | -109.73068 | 1833 ft | 199 kts | 175° |
| 2026-04-19 05:49 | 23.22660 | -109.72921 | 1566 ft | 169 kts | 175° |
| 2026-04-19 05:49 | 23.21556 | -109.72794 | 1350 ft | 153 kts | 174° |
| 2026-04-19 05:49 | 23.20520 | -109.72676 | 1155 ft | 147 kts | 174° |
| 2026-04-19 05:49 | 23.19503 | -109.72561 | 983 ft | 147 kts | 174° |
| 2026-04-19 05:50 | 23.18487 | -109.72447 | 792 ft | 147 kts | 174° |
| 2026-04-19 05:50 | 23.17473 | -109.72329 | 615 ft | 147 kts | 174° |
| 2026-04-19 05:50 | 23.16457 | -109.72207 | 405 ft | 147 kts | 175° |
| 2026-04-19 05:50 | 23.15514 | -109.72110 | 368 ft | 114 kts | 174° |
| 2026-04-19 05:51 | 23.14945 | -109.72045 | 360 ft | 57 kts | 173° |
| 2026-04-19 05:51 | 23.14677 | -109.71986 | 351 ft | 31 kts | 149° |
| 2026-04-19 05:51 | 23.14539 | -109.71895 | 350 ft | 17 kts | 143° |
| 2026-04-19 05:51 | 23.14478 | -109.71834 | 355 ft | 5 kts | 110° |
| 2026-04-19 05:52 | 23.14477 | -109.71823 | 346 ft | 0 kts | 97° |
| 2026-04-19 05:52 | 23.14481 | -109.71810 | 351 ft | 4 kts | 65° |
| 2026-04-19 05:52 | 23.14495 | -109.71794 | 350 ft | 4 kts | 37° |
| 2026-04-19 05:52 | 23.14559 | -109.71789 | 349 ft | 12 kts | 354° |
| 2026-04-19 05:53 | 23.14636 | -109.71801 | 349 ft | 12 kts | 352° |
| 2026-04-19 05:53 | 23.14733 | -109.71814 | 357 ft | 16 kts | 354° |
| 2026-04-19 05:53 | 23.14863 | -109.71829 | 356 ft | 21 kts | 353° |
| 2026-04-19 05:53 | 23.15020 | -109.71850 | 356 ft | 25 kts | 353° |
| 2026-04-19 05:54 | 23.15208 | -109.71870 | 363 ft | 27 kts | 354° |
| 2026-04-19 05:54 | 23.15392 | -109.71889 | 364 ft | 25 kts | 354° |
| 2026-04-19 05:54 | 23.15490 | -109.71902 | 369 ft | 12 kts | 353° |
| 2026-04-19 05:54 | 23.15571 | -109.71904 | 368 ft | 11 kts | 18° |
| 2026-04-19 05:55 | 23.15616 | -109.71853 | 369 ft | 9 kts | 49° |
| 2026-04-19 05:55 | 23.15636 | -109.71801 | 373 ft | 7 kts | 81° |
| 2026-04-19 05:55 | 23.15640 | -109.71765 | 375 ft | 0 kts | 83° |